Summerwind — WDF3461 — position and weather

sailwx.info

Track history (hours):
 
Tides and Currents Weather Stations Pressure Air Temp Water Temp Dewpoint Dewpoint Depression Visibility Wind Speed Wind Dir Waves Ship Positions

Summerwind (United States)

Ship's website: http://www.usmma.edu/waterfront

Owner: US Merchant Marine Academy, Kings Point, NY. More information available from US FCC via Universal Licensing System and Coast Guard Vessel Documentation Center.

Last reported at 2016-Jun-23 11:21 UTC. Time now 2016-Aug-26 01:28 UTC.
Position N 38°58' W 076°26'.
Warning: this ship's position is months out of date.

Length 30 m.

Type: Sailing vessel. MMSI: 367440150.

Date/timePositionNaut miles runAvg speedWind from/ knotsBaromVisibWave heightAir tempDewpointWater temp
2016-Jun-23 11:21N 38°58' W 076°26'4 5.2
2016-Jun-23 10:33N 39°01' W 076°22'22 6.9
2016-Jun-23 07:24N 39°21' W 076°10'13 7.2
2016-Jun-23 05:32N 39°29' W 075°57'7 7.3
2016-Jun-23 04:32N 39°32' W 075°48'7 6.9
2016-Jun-23 03:33N 39°33' W 075°39'5 4.9
2016-Jun-23 02:33N 39°32' W 075°33'7 6.9
2016-Jun-23 01:33N 39°26' W 075°32'6 5.6
2016-Jun-23 00:33N 39°21' W 075°27'6 6.1
2016-Jun-22 23:33N 39°17' W 075°21'56 3.7
2016-Jun-22 08:06N 39°30' W 074°10'3 5.9
2016-Jun-22 07:32N 39°33' W 074°08'7 6.0
2016-Jun-22 06:26N 39°38' W 074°03'5 5.7
2016-Jun-22 05:33N 39°43' W 073°59'57 5.2
2016-Jun-21 18:33N 40°39' W 074°03'67 5.9
2016-Jun-21 07:03N 41°08' W 072°42'14 5.7
2016-Jun-21 04:33N 41°11' W 072°24'51 5.6
2016-Jun-20 19:33N 41°29' W 071°21'  
Track history (hours):
 
Tides and Currents Weather Stations Pressure Air Temp Water Temp Dewpoint Dewpoint Depression Visibility Wind Speed Wind Dir Waves Ship Positions

Summerwind (United States)

Ship's website: http://www.usmma.edu/waterfront

Owner: US Merchant Marine Academy, Kings Point, NY. More information available from US FCC via Universal Licensing System and Coast Guard Vessel Documentation Center.

Last reported at 2016-Jun-23 11:21 UTC. Time now 2016-Aug-26 01:28 UTC.
Position N 38°58' W 076°26'.
Warning: this ship's position is months out of date.

Length 30 m.

Type: Sailing vessel. MMSI: 367440150.

Date/timePositionNaut miles runAvg speedWind from/ knotsBaromVisibWave heightAir tempDewpointWater temp
2016-Jun-23 11:21N 38°58' W 076°26'4 5.2
2016-Jun-23 10:33N 39°01' W 076°22'22 6.9
2016-Jun-23 07:24N 39°21' W 076°10'13 7.2
2016-Jun-23 05:32N 39°29' W 075°57'7 7.3
2016-Jun-23 04:32N 39°32' W 075°48'7 6.9
2016-Jun-23 03:33N 39°33' W 075°39'5 4.9
2016-Jun-23 02:33N 39°32' W 075°33'7 6.9
2016-Jun-23 01:33N 39°26' W 075°32'6 5.6
2016-Jun-23 00:33N 39°21' W 075°27'6 6.1
2016-Jun-22 23:33N 39°17' W 075°21'56 3.7
2016-Jun-22 08:06N 39°30' W 074°10'3 5.9
2016-Jun-22 07:32N 39°33' W 074°08'7 6.0
2016-Jun-22 06:26N 39°38' W 074°03'5 5.7
2016-Jun-22 05:33N 39°43' W 073°59'57 5.2
2016-Jun-21 18:33N 40°39' W 074°03'67 5.9
2016-Jun-21 07:03N 41°08' W 072°42'14 5.7
2016-Jun-21 04:33N 41°11' W 072°24'51 5.6
2016-Jun-20 19:33N 41°29' W 071°21'  

Dump ship's entire track history